Mayfield Village, Ohio
Current Conditions -  °F | °C
As of 6:45 AM on Thursday 18 Dec 2014 (Local Time) from KCGF Reporting Station
Broken Clouds Broken Clouds  
Wind Chill: 22°   Ceiling: 5000
Heat Index: 32°   Visibility: 10mi
Dew Point: 25°   Wind: 14mph
Humidity: 75%   Direction: 300°WNW
Pressure: 30.19"   Gusts: NA
Location:  41.5545°N, 81.4746°W
Report Text: KCGF 181145Z 30012KT 10SM SCT020 BKN050 00/M04 A3019
Loading
Personal Weather Stations






























Interactive Weather Map New forecast layout! Learn more

10-Day Weather Forecast

Advertisements
Track Severe Weather on mobile